Time;durP1;ratioP1;P1;durP2;ratioP2;P2;SDS_P1;SDS_P2;PMS_P1;PMS_P2;Temp;Humidity;BMP_temperature;BMP_pressure;BME280_temperature;BME280_humidity;BME280_pressure;Samples;Min_cycle;Max_cycle;Signal;HPM_P1;HPM_P2
2023/01/29 00:02:22;;;;;;;;;;;;;;;-2.17;86.64;99479.17;105354;1268;99258;-65
2023/01/29 00:04:49;;;;;;;;;;;;;;;-2.20;86.98;99480.30;105357;1256;99240;-65
2023/01/29 00:07:16;;;;;;;;;;;;;;;-2.22;86.68;99481.94;105246;1256;99338;-65
2023/01/29 00:09:43;;;;;;;;;;;;;;;-2.27;87.04;99484.35;105309;1256;99274;-69
2023/01/29 00:12:10;;;;;;;;;;;;;;;-2.32;86.95;99479.31;105285;1256;100562;-66
2023/01/29 00:14:37;;;;;;;;;;;;;;;-2.35;87.02;99486.75;105311;1258;99624;-65
2023/01/29 00:17:04;;;;;;;;;;;;;;;-2.37;87.13;99487.65;105320;1261;99295;-65
2023/01/29 00:19:31;;;;;;;;;;;;;;;-2.37;87.13;99489.16;105020;1267;100452;-65
2023/01/29 00:21:57;;;;;;;;;;;;;;;-2.41;87.25;99486.27;105217;1257;99346;-65
2023/01/29 00:24:24;;;;;;;;;;;;;;;-2.44;87.07;99486.02;104991;1258;108557;-66
2023/01/29 00:26:51;;;;;;;;;;;;;;;-2.49;87.00;99488.38;105131;1257;100470;-66
2023/01/29 00:29:18;;;;;;;;;;;;;;;-2.52;87.03;99491.64;105219;1265;99245;-66
2023/01/29 00:31:46;;;;;;;;;;;;;;;-2.55;87.29;99497.08;105342;1267;99245;-66
2023/01/29 00:34:13;;;;;;;;;;;;;;;-2.58;87.48;99503.57;105332;1257;100462;-66
2023/01/29 00:36:40;;;;;;;;;;;;;;;-2.59;87.52;99511.86;105340;1258;99320;-66
2023/01/29 00:39:09;;;;;;;;;;;;;;;-2.61;87.44;99507.41;105276;1257;99951;-66
2023/01/29 00:47:29;;;;;;;;;;;;;;;-2.60;87.08;99513.85;105209;1265;99253;-66
2023/01/29 00:49:55;;;;;;;;;;;;;;;-2.56;86.85;99507.61;105097;1255;108484;-66
2023/01/29 00:52:22;;;;;;;;;;;;;;;-2.54;86.48;99506.63;105156;1251;99685;-66
2023/01/29 00:54:53;;;;;;;;;;;;;;;-2.51;86.35;99511.58;105268;1255;99155;-66
2023/01/29 00:57:29;;;;;;;;;;;;;;;-2.47;86.23;99512.09;105372;1256;113558;-69
2023/01/29 00:59:57;;;;;;;;;;;;;;;-2.47;85.70;99512.65;105206;1257;100478;-69
2023/01/29 01:05:12;;;;;;;;;;;;;;;-2.43;85.44;99510.30;105335;1257;100485;-67
2023/01/29 01:07:40;;;;;;;;;;;;;;;-2.40;85.63;99511.91;105360;1257;100538;-67
2023/01/29 01:10:21;;;;;;;;;;;;;;;-2.40;85.48;99513.84;105325;1251;99227;-66
2023/01/29 01:12:49;;;;;;;;;;;;;;;-2.42;85.51;99517.41;105376;1257;99228;-67
2023/01/29 01:15:17;;;;;;;;;;;;;;;-2.47;85.54;99522.52;105311;1252;108051;-67
2023/01/29 01:17:44;;;;;;;;;;;;;;;-2.53;85.38;99526.98;105310;1257;99231;-66
2023/01/29 01:20:12;;;;;;;;;;;;;;;-2.58;85.36;99530.78;105350;1255;100434;-66
2023/01/29 01:22:40;;;;;;;;;;;;;;;-2.67;85.39;99527.27;105342;1264;112684;-67
2023/01/29 01:25:07;;;;;;;;;;;;;;;-2.74;84.84;99531.30;105359;1257;100609;-66
2023/01/29 01:27:39;;;;;;;;;;;;;;;-2.79;84.67;99531.86;105298;1257;107925;-67
2023/01/29 01:30:11;;;;;;;;;;;;;;;-2.84;84.08;99531.65;105347;1251;99249;-67
2023/01/29 01:32:38;;;;;;;;;;;;;;;-2.87;84.25;99527.36;105360;1261;99253;-67
2023/01/29 01:35:06;;;;;;;;;;;;;;;-2.91;83.71;99529.73;105349;1257;112938;-67
2023/01/29 01:37:36;;;;;;;;;;;;;;;-2.95;83.93;99526.35;105326;1257;99323;-66
2023/01/29 01:40:11;;;;;;;;;;;;;;;-3.01;83.63;99523.07;105269;1261;109811;-67
2023/01/29 01:42:39;;;;;;;;;;;;;;;-3.05;83.72;99517.63;105268;1257;100548;-67
2023/01/29 01:45:09;;;;;;;;;;;;;;;-3.08;83.49;99520.26;105310;1264;100423;-67
2023/01/29 01:47:39;;;;;;;;;;;;;;;-3.09;83.29;99518.52;105249;1257;113564;-66
2023/01/29 01:50:12;;;;;;;;;;;;;;;-3.08;83.52;99516.34;105165;1257;99744;-67
2023/01/29 01:52:42;;;;;;;;;;;;;;;-3.05;83.21;99513.33;105235;1257;108516;-67
2023/01/29 01:55:12;;;;;;;;;;;;;;;-3.02;83.15;99512.35;105191;1272;99262;-67
2023/01/29 01:57:41;;;;;;;;;;;;;;;-2.99;83.08;99513.39;105400;1257;99278;-66
2023/01/29 02:00:09;;;;;;;;;;;;;;;-2.97;82.95;99512.65;105301;1257;113586;-66
2023/01/29 02:10:55;;;;;;;;;;;;;;;-2.91;80.28;99509.19;105311;1251;99429;-66
2023/01/29 02:13:22;;;;;;;;;;;;;;;-2.96;79.60;99499.81;105107;1257;100534;-67
2023/01/29 02:15:49;;;;;;;;;;;;;;;-2.99;79.56;99495.36;105195;1256;99250;-66
2023/01/29 02:18:18;;;;;;;;;;;;;;;-2.99;80.12;99499.11;105138;1258;99256;-73
2023/01/29 02:20:56;;;;;;;;;;;;;;;-3.02;79.68;99494.81;105321;1251;99299;-68
2023/01/29 02:23:55;;;;;;;;;;;;;;;-3.05;78.77;99493.65;105378;1257;100443;-67
2023/01/29 02:26:26;;;;;;;;;;;;;;;-3.14;77.04;99484.30;104993;1262;113051;-67
2023/01/29 02:29:21;;;;;;;;;;;;;;;-3.17;77.94;99488.75;105322;1257;99230;-67
2023/01/29 02:31:49;;;;;;;;;;;;;;;-3.19;77.98;99487.55;105334;1257;108158;-67
2023/01/29 02:34:16;;;;;;;;;;;;;;;-3.21;78.13;99483.19;105231;1251;99272;-67
2023/01/29 02:36:53;;;;;;;;;;;;;;;-3.24;77.84;99475.88;105354;1266;99239;-67
2023/01/29 02:39:28;;;;;;;;;;;;;;;-3.27;77.85;99468.27;105357;1264;113425;-67
2023/01/29 02:41:59;;;;;;;;;;;;;;;-3.28;78.31;99464.11;105231;1257;99406;-67
2023/01/29 02:44:31;;;;;;;;;;;;;;;-3.29;78.24;99464.40;105292;1256;108112;-67
2023/01/29 02:47:10;;;;;;;;;;;;;;;-3.31;78.07;99464.14;105320;1258;99249;-67
2023/01/29 02:49:41;;;;;;;;;;;;;;;-3.34;78.10;99460.58;105317;1257;100030;-67
2023/01/29 02:52:14;;;;;;;;;;;;;;;-3.37;77.68;99469.73;105086;1259;112637;-67
2023/01/29 02:54:44;;;;;;;;;;;;;;;-3.37;78.35;99473.80;105363;1255;99147;-67
2023/01/29 02:57:22;;;;;;;;;;;;;;;-3.38;77.52;99470.89;105179;1251;108495;-67
2023/01/29 02:59:58;;;;;;;;;;;;;;;-3.38;78.08;99473.44;105366;1256;99245;-67
2023/01/29 03:02:29;;;;;;;;;;;;;;;-3.38;77.80;99480.78;105279;1257;99862;-67
2023/01/29 03:04:59;;;;;;;;;;;;;;;-3.39;77.57;99486.77;105261;1257;113575;-67
2023/01/29 03:07:45;;;;;;;;;;;;;;;-3.42;76.93;99488.96;105357;1257;100192;-67
2023/01/29 03:10:18;;;;;;;;;;;;;;;-3.42;77.84;99494.22;105220;1256;108664;-67
2023/01/29 03:12:48;;;;;;;;;;;;;;;-3.41;77.57;99498.42;105261;1257;99229;-67
2023/01/29 03:15:17;;;;;;;;;;;;;;;-3.42;77.63;99493.92;105331;1258;100437;-67
2023/01/29 03:17:44;;;;;;;;;;;;;;;-3.41;77.70;99494.83;105369;1257;112430;-67
2023/01/29 03:20:16;;;;;;;;;;;;;;;-3.41;77.93;99496.39;105255;1257;99311;-67
2023/01/29 03:22:45;;;;;;;;;;;;;;;-3.43;76.95;99490.94;105247;1256;108421;-67
2023/01/29 03:33:43;;;;;;;;;;;;;;;-3.28;76.99;99512.52;105210;1251;99357;-67
2023/01/29 03:36:20;;;;;;;;;;;;;;;-3.23;76.39;99509.17;105125;1274;108992;-66
2023/01/29 03:38:47;;;;;;;;;;;;;;;-3.19;76.01;99509.87;105297;1257;99201;-69
2023/01/29 03:41:21;;;;;;;;;;;;;;;-3.15;75.92;99511.13;105264;1255;100567;-69
2023/01/29 03:43:53;;;;;;;;;;;;;;;-3.11;76.31;99504.27;105297;1256;114671;-68
2023/01/29 03:46:28;;;;;;;;;;;;;;;-3.09;76.24;99503.75;105334;1257;100563;-68
2023/01/29 03:49:00;;;;;;;;;;;;;;;-3.08;76.01;99500.45;105340;1257;106579;-67
2023/01/29 03:51:31;;;;;;;;;;;;;;;-3.11;75.65;99494.91;105312;1257;99255;-67
2023/01/29 03:54:04;;;;;;;;;;;;;;;-3.09;76.49;99493.95;105323;1257;99239;-66
2023/01/29 03:56:31;;;;;;;;;;;;;;;-3.08;76.61;99489.23;105351;1257;112273;-67
2023/01/29 03:59:01;;;;;;;;;;;;;;;-3.08;76.72;99490.42;105348;1266;99349;-66
2023/01/29 04:01:30;;;;;;;;;;;;;;;-3.09;76.79;99486.96;105299;1255;109799;-66
2023/01/29 04:03:57;;;;;;;;;;;;;;;-3.10;76.77;99482.50;105327;1252;99271;-67
2023/01/29 04:06:28;;;;;;;;;;;;;;;-3.11;76.90;99474.98;105256;1257;99348;-66
2023/01/29 04:08:57;;;;;;;;;;;;;;;-3.14;76.71;99472.59;105340;1255;113488;-67
2023/01/29 04:11:26;;;;;;;;;;;;;;;-3.17;76.64;99466.55;105289;1257;99147;-68
2023/01/29 04:13:53;;;;;;;;;;;;;;;-3.18;77.03;99465.89;105256;1257;108522;-68
2023/01/29 04:16:23;;;;;;;;;;;;;;;-3.19;76.73;99464.98;105248;1265;99349;-68
2023/01/29 04:18:51;;;;;;;;;;;;;;;-3.19;76.91;99472.21;105286;1260;99339;-68
2023/01/29 04:21:18;;;;;;;;;;;;;;;-3.20;76.77;99469.61;105355;1266;111185;-68
2023/01/29 04:23:45;;;;;;;;;;;;;;;-3.19;77.21;99465.52;105320;1267;99257;-68
2023/01/29 04:26:32;;;;;;;;;;;;;;;-3.19;77.21;99457.69;105304;1256;100724;-68
2023/01/29 04:29:15;;;;;;;;;;;;;;;-3.19;77.20;99449.80;105287;1257;99271;-68
2023/01/29 04:31:59;;;;;;;;;;;;;;;-3.21;77.23;99444.00;105389;1257;99227;-68
2023/01/29 04:34:27;;;;;;;;;;;;;;;-3.19;77.47;99439.11;105361;1257;113725;-68
2023/01/29 04:37:09;;;;;;;;;;;;;;;-3.18;77.78;99435.98;105309;1257;99428;-67
2023/01/29 04:39:47;;;;;;;;;;;;;;;-3.19;77.43;99437.35;105320;1251;107694;-66
2023/01/29 04:42:37;;;;;;;;;;;;;;;-3.18;77.60;99428.66;105044;1252;259929;-66
2023/01/29 04:45:14;;;;;;;;;;;;;;;-3.19;77.04;99419.44;105241;1261;99195;-66
2023/01/29 04:47:48;;;;;;;;;;;;;;;-3.21;77.13;99408.61;105364;1257;114815;-66
2023/01/29 04:50:15;;;;;;;;;;;;;;;-3.20;77.34;99403.59;105328;1264;99230;-66
2023/01/29 04:52:48;;;;;;;;;;;;;;;-3.19;77.28;99402.84;105393;1257;99242;-66
2023/01/29 04:55:34;;;;;;;;;;;;;;;-3.19;76.98;99407.86;105333;1256;99415;-66
2023/01/29 04:58:04;;;;;;;;;;;;;;;-3.20;77.11;99403.88;105076;1257;99240;-66
2023/01/29 05:00:52;;;;;;;;;;;;;;;-3.22;77.03;99400.15;105214;1256;114431;-68
2023/01/29 05:03:21;;;;;;;;;;;;;;;-3.22;77.08;99394.50;105220;1255;100559;-71
2023/01/29 05:05:49;;;;;;;;;;;;;;;-3.20;77.37;99397.64;105406;1260;108629;-67
2023/01/29 05:08:18;;;;;;;;;;;;;;;-3.19;77.28;99392.67;105342;1257;99335;-69
2023/01/29 05:10:47;;;;;;;;;;;;;;;-3.20;77.12;99391.79;105359;1251;99698;-67
2023/01/29 05:13:14;;;;;;;;;;;;;;;-3.21;77.23;99398.42;105359;1251;112671;-70
2023/01/29 05:15:45;;;;;;;;;;;;;;;-3.22;77.17;99397.48;105309;1257;99249;-67
2023/01/29 05:18:13;;;;;;;;;;;;;;;-3.22;77.28;99401.60;105330;1256;108785;-67
2023/01/29 05:20:42;;;;;;;;;;;;;;;-3.21;77.37;99407.63;105319;1266;99309;-69
2023/01/29 05:23:14;;;;;;;;;;;;;;;-3.20;77.66;99409.06;105345;1257;100440;-71
2023/01/29 05:25:41;;;;;;;;;;;;;;;-3.20;77.64;99409.39;105322;1266;113246;-68
2023/01/29 05:28:18;;;;;;;;;;;;;;;-3.20;77.68;99410.67;105372;1256;99341;-68
2023/01/29 05:30:46;;;;;;;;;;;;;;;-3.18;77.96;99411.08;105317;1257;108791;-69
2023/01/29 05:33:15;;;;;;;;;;;;;;;-3.17;78.03;99409.42;105404;1251;99245;-68
2023/01/29 05:35:42;;;;;;;;;;;;;;;-3.19;77.84;99408.89;105445;1256;99338;-69
2023/01/29 05:38:09;;;;;;;;;;;;;;;-3.17;78.14;99414.91;105301;1255;100576;-68
2023/01/29 05:40:37;;;;;;;;;;;;;;;-3.16;77.74;99417.80;105357;1264;99405;-69
2023/01/29 05:43:05;;;;;;;;;;;;;;;-3.16;77.72;99416.20;105280;1264;99330;-68
2023/01/29 05:45:32;;;;;;;;;;;;;;;-3.15;77.77;99415.21;105288;1257;100551;-68
2023/01/29 05:47:59;;;;;;;;;;;;;;;-3.17;77.21;99415.73;105298;1256;99245;-69
2023/01/29 05:50:26;;;;;;;;;;;;;;;-3.17;76.95;99413.77;105251;1257;99326;-69
2023/01/29 05:52:57;;;;;;;;;;;;;;;-3.17;76.97;99408.16;105305;1266;99234;-70
2023/01/29 05:55:24;;;;;;;;;;;;;;;-3.19;76.85;99408.52;105305;1257;107954;-69
2023/01/29 05:57:51;;;;;;;;;;;;;;;-3.20;76.40;99411.58;105258;1257;99240;-70
2023/01/29 06:00:18;;;;;;;;;;;;;;;-3.22;76.60;99415.21;105344;1260;99232;-70
2023/01/29 06:02:45;;;;;;;;;;;;;;;-3.20;76.90;99416.45;105384;1267;99515;-67
2023/01/29 06:05:12;;;;;;;;;;;;;;;-3.20;76.83;99421.35;105317;1257;99268;-67
2023/01/29 06:07:43;;;;;;;;;;;;;;;-3.21;76.72;99424.90;105258;1257;100551;-67
2023/01/29 06:10:11;;;;;;;;;;;;;;;-3.22;77.13;99422.30;105354;1266;100539;-67
2023/01/29 06:12:39;;;;;;;;;;;;;;;-3.22;77.06;99427.88;105211;1265;99233;-68
2023/01/29 06:15:06;;;;;;;;;;;;;;;-3.23;76.55;99428.40;105246;1265;113749;-67
2023/01/29 06:17:33;;;;;;;;;;;;;;;-3.22;76.25;99426.83;105313;1257;99251;-67
2023/01/29 06:20:00;;;;;;;;;;;;;;;-3.19;75.98;99428.58;105069;1270;99303;-67
2023/01/29 06:22:26;;;;;;;;;;;;;;;-3.14;76.42;99422.59;105120;1257;100481;-68
2023/01/29 06:24:53;;;;;;;;;;;;;;;-3.09;76.08;99422.61;105128;1256;99208;-74
2023/01/29 06:27:21;;;;;;;;;;;;;;;-3.06;75.39;99435.55;105291;1268;99612;-70
2023/01/29 06:29:48;;;;;;;;;;;;;;;-3.00;75.12;99441.67;105349;1266;99261;-68
2023/01/29 06:32:15;;;;;;;;;;;;;;;-2.94;75.31;99439.04;105263;1256;99240;-70
2023/01/29 06:34:42;;;;;;;;;;;;;;;-2.91;75.40;99441.89;105316;1267;99281;-70
2023/01/29 06:37:09;;;;;;;;;;;;;;;-2.87;75.61;99442.80;105234;1257;100541;-70
2023/01/29 06:39:35;;;;;;;;;;;;;;;-2.86;75.73;99447.91;105273;1267;99263;-70
2023/01/29 06:42:02;;;;;;;;;;;;;;;-2.86;75.84;99445.06;105289;1257;99236;-70
2023/01/29 06:44:29;;;;;;;;;;;;;;;-2.88;75.71;99440.11;105292;1256;100535;-70
2023/01/29 06:46:56;;;;;;;;;;;;;;;-2.89;75.89;99443.45;105409;1257;100583;-69
2023/01/29 06:49:23;;;;;;;;;;;;;;;-2.92;75.79;99443.86;105310;1264;99200;-70
2023/01/29 06:51:50;;;;;;;;;;;;;;;-2.93;75.97;99439.32;105291;1257;99272;-67
2023/01/29 06:54:16;;;;;;;;;;;;;;;-2.94;76.18;99436.39;105284;1257;99929;-69
2023/01/29 06:56:43;;;;;;;;;;;;;;;-2.95;76.04;99439.21;105393;1256;100721;-70
2023/01/29 06:59:11;;;;;;;;;;;;;;;-2.97;75.83;99441.92;105266;1264;100626;-70
2023/01/29 07:01:40;;;;;;;;;;;;;;;-2.99;75.61;99443.52;105385;1257;99251;-70
2023/01/29 07:04:07;;;;;;;;;;;;;;;-3.00;75.82;99447.36;105355;1265;99263;-68
2023/01/29 07:06:34;;;;;;;;;;;;;;;-3.02;75.81;99448.69;105310;1256;99241;-66
2023/01/29 07:09:04;;;;;;;;;;;;;;;-3.05;75.59;99442.41;105356;1256;99230;-68
2023/01/29 07:11:33;;;;;;;;;;;;;;;-3.05;75.91;99444.77;105332;1264;113795;-68
2023/01/29 07:13:59;;;;;;;;;;;;;;;-3.04;76.17;99446.86;105295;1251;99232;-68
2023/01/29 07:16:26;;;;;;;;;;;;;;;-3.02;76.18;99452.77;105300;1264;99224;-66
2023/01/29 07:18:53;;;;;;;;;;;;;;;-3.02;76.00;99454.08;105308;1267;100427;-66
2023/01/29 07:21:20;;;;;;;;;;;;;;;-3.03;75.93;99457.96;105383;1257;99357;-66
2023/01/29 07:23:47;;;;;;;;;;;;;;;-3.04;76.23;99459.25;105287;1257;100541;-68
2023/01/29 07:26:14;;;;;;;;;;;;;;;-3.04;76.36;99458.58;105311;1256;100556;-67
2023/01/29 07:28:41;;;;;;;;;;;;;;;-3.02;76.76;99463.20;105165;1268;99388;-68
2023/01/29 07:31:10;;;;;;;;;;;;;;;-3.00;76.90;99459.49;105304;1264;99322;-68
2023/01/29 07:33:37;;;;;;;;;;;;;;;-2.98;76.91;99462.68;105256;1267;112726;-68
2023/01/29 07:36:08;;;;;;;;;;;;;;;-2.97;77.04;99468.05;105128;1265;99344;-68
2023/01/29 07:38:35;;;;;;;;;;;;;;;-2.94;77.09;99466.48;105315;1267;108322;-68
2023/01/29 07:41:02;;;;;;;;;;;;;;;-2.93;77.13;99465.89;105111;1263;99317;-68
2023/01/29 07:43:29;;;;;;;;;;;;;;;-2.91;77.50;99465.86;105233;1264;100540;-69
2023/01/29 07:46:00;;;;;;;;;;;;;;;-2.87;77.45;99463.35;105213;1265;99233;-67
2023/01/29 07:48:27;;;;;;;;;;;;;;;-2.81;77.27;99467.80;105315;1251;99798;-69
2023/01/29 07:50:55;;;;;;;;;;;;;;;-2.78;77.44;99470.16;105306;1264;99246;-69
2023/01/29 07:53:21;;;;;;;;;;;;;;;-2.74;77.34;99473.61;105357;1261;99326;-68
2023/01/29 07:55:48;;;;;;;;;;;;;;;-2.70;77.34;99470.00;105333;1264;99178;-68
2023/01/29 07:58:15;;;;;;;;;;;;;;;-2.60;77.93;99469.92;105282;1265;99363;-68
2023/01/29 08:00:43;;;;;;;;;;;;;;;-2.51;77.96;99467.94;105322;1264;100615;-68
2023/01/29 08:03:11;;;;;;;;;;;;;;;-2.44;78.08;99470.34;105324;1261;99314;-68
2023/01/29 08:05:38;;;;;;;;;;;;;;;-2.36;77.93;99472.55;105325;1265;101007;-69
2023/01/29 08:08:05;;;;;;;;;;;;;;;-2.30;77.86;99478.79;105209;1266;99322;-68
2023/01/29 08:10:34;;;;;;;;;;;;;;;-2.30;77.84;99486.88;105232;1265;99256;-69
2023/01/29 08:13:02;;;;;;;;;;;;;;;-2.26;78.18;99491.45;105275;1257;99243;-68
2023/01/29 08:15:30;;;;;;;;;;;;;;;-2.23;78.15;99495.17;105266;1264;108562;-68
2023/01/29 08:17:56;;;;;;;;;;;;;;;-2.24;77.97;99500.29;105257;1258;99237;-68
2023/01/29 08:20:24;;;;;;;;;;;;;;;-2.23;78.42;99503.19;105300;1265;99230;-69
2023/01/29 08:22:59;;;;;;;;;;;;;;;-2.20;78.47;99505.83;105318;1261;113547;-67
2023/01/29 08:25:27;;;;;;;;;;;;;;;-2.25;78.37;99505.09;105367;1257;99686;-67
2023/01/29 08:27:56;;;;;;;;;;;;;;;-2.27;78.23;99496.54;105316;1265;107313;-67
2023/01/29 08:30:27;;;;;;;;;;;;;;;-2.27;78.62;99497.02;105308;1256;99246;-67
2023/01/29 08:32:54;;;;;;;;;;;;;;;-2.28;78.50;99499.38;105377;1264;100538;-67
2023/01/29 08:35:21;;;;;;;;;;;;;;;-2.30;78.68;99497.31;105298;1265;99322;-67
2023/01/29 08:37:59;;;;;;;;;;;;;;;-2.32;78.85;99501.04;105333;1251;99284;-67
2023/01/29 08:40:27;;;;;;;;;;;;;;;-2.35;79.00;99502.01;105302;1257;108132;-67
2023/01/29 08:42:57;;;;;;;;;;;;;;;-2.34;79.12;99507.41;105302;1264;100554;-67
2023/01/29 08:45:28;;;;;;;;;;;;;;;-2.31;79.23;99510.17;105299;1257;99256;-67
2023/01/29 08:47:56;;;;;;;;;;;;;;;-2.32;79.07;99514.05;105368;1257;113444;-67
2023/01/29 08:50:23;;;;;;;;;;;;;;;-2.32;79.30;99511.79;105349;1258;99239;-67
2023/01/29 08:52:50;;;;;;;;;;;;;;;-2.34;79.25;99510.66;105268;1257;99246;-67
2023/01/29 08:55:17;;;;;;;;;;;;;;;-2.34;79.48;99509.80;105299;1264;99922;-67
2023/01/29 08:57:44;;;;;;;;;;;;;;;-2.34;79.33;99512.90;105321;1257;99268;-67
2023/01/29 09:00:12;;;;;;;;;;;;;;;-2.38;79.33;99513.85;105366;1261;99325;-67
2023/01/29 09:02:39;;;;;;;;;;;;;;;-2.39;79.31;99513.05;105297;1264;100579;-67
2023/01/29 09:05:06;;;;;;;;;;;;;;;-2.39;79.22;99509.67;105213;1264;99240;-71
2023/01/29 09:07:33;;;;;;;;;;;;;;;-2.36;79.19;99506.46;105321;1264;99257;-67
2023/01/29 09:10:00;;;;;;;;;;;;;;;-2.32;79.18;99507.60;105286;1265;99250;-71
2023/01/29 09:12:27;;;;;;;;;;;;;;;-2.23;79.23;99502.64;105330;1257;99230;-69
2023/01/29 09:14:55;;;;;;;;;;;;;;;-2.17;78.90;99499.55;105345;1267;99253;-65
2023/01/29 09:17:22;;;;;;;;;;;;;;;-2.14;78.75;99491.07;105292;1257;99230;-66
2023/01/29 09:19:51;;;;;;;;;;;;;;;-2.06;78.63;99488.15;105323;1266;99227;-66
2023/01/29 09:22:18;;;;;;;;;;;;;;;-2.03;77.57;99485.13;105329;1257;112230;-66
2023/01/29 09:24:45;;;;;;;;;;;;;;;-2.05;77.06;99488.55;105308;1266;99748;-66
2023/01/29 09:27:12;;;;;;;;;;;;;;;-2.05;76.98;99488.16;105272;1257;99281;-65
2023/01/29 09:29:39;;;;;;;;;;;;;;;-2.00;77.55;99484.59;105279;1258;100022;-66
2023/01/29 09:32:06;;;;;;;;;;;;;;;-1.92;77.78;99480.94;105302;1257;99181;-64
2023/01/29 09:34:34;;;;;;;;;;;;;;;-1.92;76.87;99480.40;105260;1266;99337;-65
2023/01/29 09:37:01;;;;;;;;;;;;;;;-1.93;76.85;99483.41;105306;1266;100433;-66
2023/01/29 09:39:28;;;;;;;;;;;;;;;-1.86;77.01;99478.06;105258;1266;100617;-66
2023/01/29 09:42:01;;;;;;;;;;;;;;;-1.84;76.13;99480.83;105282;1266;99265;-66
2023/01/29 09:44:34;;;;;;;;;;;;;;;-1.85;76.19;99487.52;105084;1266;99333;-66
2023/01/29 09:47:04;;;;;;;;;;;;;;;-1.90;75.31;99498.30;105161;1257;113409;-66
2023/01/29 09:49:36;;;;;;;;;;;;;;;-1.96;75.48;99500.16;105286;1257;99289;-66
2023/01/29 09:52:16;;;;;;;;;;;;;;;-2.00;75.84;99503.06;105128;1258;107750;-66
2023/01/29 09:54:58;;;;;;;;;;;;;;;-1.98;75.85;99501.86;105106;1257;99695;-66
2023/01/29 09:57:32;;;;;;;;;;;;;;;-1.94;76.11;99492.02;105280;1266;99310;-66
2023/01/29 09:59:59;;;;;;;;;;;;;;;-1.94;75.89;99484.46;105344;1257;113410;-65
2023/01/29 10:02:55;;;;;;;;;;;;;;;-1.92;75.59;99477.22;105234;1257;99338;-66
2023/01/29 10:05:28;;;;;;;;;;;;;;;-1.85;75.92;99471.25;104892;1263;108584;-66
2023/01/29 10:07:56;;;;;;;;;;;;;;;-1.80;75.65;99470.14;104830;1259;99336;-66
2023/01/29 10:10:38;;;;;;;;;;;;;;;-1.79;75.56;99465.73;104781;1263;99498;-66
2023/01/29 10:13:24;;;;;;;;;;;;;;;-1.79;75.36;99459.64;104754;1263;113718;-66
2023/01/29 10:16:03;;;;;;;;;;;;;;;-1.83;75.13;99450.44;104704;1270;99415;-65
2023/01/29 10:18:56;;;;;;;;;;;;;;;-1.86;75.11;99447.85;104793;1271;107855;-65
2023/01/29 10:21:36;;;;;;;;;;;;;;;-1.86;75.19;99445.73;104634;1261;99445;-66
2023/01/29 10:24:14;;;;;;;;;;;;;;;-1.80;74.83;99438.90;104706;1262;99445;-65
2023/01/29 10:26:41;;;;;;;;;;;;;;;-1.77;74.40;99434.46;104810;1273;112920;-67
2023/01/29 10:29:14;;;;;;;;;;;;;;;-1.74;73.71;99424.41;104614;1262;99450;-66
2023/01/29 10:31:42;;;;;;;;;;;;;;;-1.71;73.48;99412.52;104864;1263;108489;-67
2023/01/29 10:34:15;;;;;;;;;;;;;;;-1.44;74.34;99404.94;104729;1263;99422;-64
2023/01/29 10:36:43;;;;;;;;;;;;;;;-1.10;72.55;99399.69;104780;1263;99394;-65
2023/01/29 10:39:14;;;;;;;;;;;;;;;-0.87;72.18;99392.79;104885;1264;112606;-66
2023/01/29 10:41:57;;;;;;;;;;;;;;;-0.66;72.16;99386.48;104946;1275;99419;-65
2023/01/29 10:44:47;;;;;;;;;;;;;;;-0.43;71.67;99375.16;105290;1273;106312;-65
2023/01/29 10:47:23;;;;;;;;;;;;;;;-0.10;71.96;99371.23;105265;1267;100558;-65
2023/01/29 10:49:53;;;;;;;;;;;;;;;0.14;69.80;99365.55;105347;1256;99188;-64
2023/01/29 10:52:39;;;;;;;;;;;;;;;0.10;68.87;99363.45;105327;1257;113649;-64
2023/01/29 10:55:24;;;;;;;;;;;;;;;0.10;70.03;99366.02;105337;1266;99245;-64
2023/01/29 10:57:52;;;;;;;;;;;;;;;0.07;69.62;99358.17;105167;1257;108262;-64
2023/01/29 11:00:29;;;;;;;;;;;;;;;-0.04;68.74;99360.83;105254;1257;99265;-64
2023/01/29 11:02:56;;;;;;;;;;;;;;;-0.18;68.23;99353.50;105321;1256;99265;-64
2023/01/29 11:05:42;;;;;;;;;;;;;;;-0.40;67.38;99346.62;105423;1256;113536;-64
2023/01/29 11:08:29;;;;;;;;;;;;;;;-0.68;67.75;99344.21;105317;1256;100468;-64
2023/01/29 11:10:56;;;;;;;;;;;;;;;-0.82;69.44;99338.31;105306;1266;107834;-64
2023/01/29 11:13:26;;;;;;;;;;;;;;;-0.85;69.35;99336.55;105282;1256;100529;-64
2023/01/29 11:15:53;;;;;;;;;;;;;;;-0.88;69.79;99333.39;105303;1254;99258;-64
2023/01/29 11:18:20;;;;;;;;;;;;;;;-0.93;69.80;99326.69;105275;1257;99265;-64
2023/01/29 11:20:58;;;;;;;;;;;;;;;-1.01;68.90;99321.26;105245;1257;99240;-64
2023/01/29 11:23:27;;;;;;;;;;;;;;;-1.07;69.20;99320.70;105236;1256;107155;-64
2023/01/29 11:25:56;;;;;;;;;;;;;;;-1.07;69.95;99313.37;105302;1266;99480;-64
2023/01/29 11:28:38;;;;;;;;;;;;;;;-1.08;69.47;99313.24;105320;1270;99925;-65
2023/01/29 11:31:16;;;;;;;;;;;;;;;-1.09;69.80;99303.04;105306;1254;113602;-65
2023/01/29 11:33:44;;;;;;;;;;;;;;;-1.14;69.46;99299.11;105307;1257;100573;-65
2023/01/29 11:36:19;;;;;;;;;;;;;;;-1.22;69.88;99298.95;105308;1257;107388;-65
2023/01/29 11:38:46;;;;;;;;;;;;;;;-1.27;69.97;99297.05;105290;1266;99281;-66
2023/01/29 11:41:17;;;;;;;;;;;;;;;-1.33;69.13;99297.44;105171;1257;99329;-66
2023/01/29 11:43:44;;;;;;;;;;;;;;;-1.39;68.66;99297.16;105124;1266;113558;-68
2023/01/29 11:46:12;;;;;;;;;;;;;;;-1.41;69.51;99284.60;105025;1257;99468;-65
2023/01/29 11:48:39;;;;;;;;;;;;;;;-1.37;69.67;99284.40;105197;1258;99281;-69
2023/01/29 11:51:07;;;;;;;;;;;;;;;-1.29;70.06;99278.38;105180;1266;100589;-68
2023/01/29 11:53:37;;;;;;;;;;;;;;;-1.20;70.00;99280.65;105283;1256;99373;-66
2023/01/29 11:56:12;;;;;;;;;;;;;;;-1.15;69.76;99280.66;105331;1257;113296;-66
2023/01/29 11:58:40;;;;;;;;;;;;;;;-1.09;69.70;99284.70;105152;1257;99355;-66
2023/01/29 12:01:08;;;;;;;;;;;;;;;-1.05;69.41;99274.59;105167;1254;109956;-66
2023/01/29 12:03:39;;;;;;;;;;;;;;;-1.01;69.06;99276.76;105298;1266;99361;-66
2023/01/29 12:06:11;;;;;;;;;;;;;;;-1.00;68.65;99277.20;105224;1258;99164;-66
2023/01/29 12:08:39;;;;;;;;;;;;;;;-0.97;69.26;99281.07;105324;1267;113183;-66
2023/01/29 12:11:07;;;;;;;;;;;;;;;-0.90;69.76;99279.84;105299;1266;99291;-66
2023/01/29 12:13:35;;;;;;;;;;;;;;;-0.79;69.00;99274.70;105194;1258;108681;-66
2023/01/29 12:16:20;;;;;;;;;;;;;;;-0.70;68.91;99271.48;105308;1257;99266;-66
2023/01/29 12:19:14;;;;;;;;;;;;;;;-0.50;68.85;99267.48;105278;1256;99246;-65
2023/01/29 12:22:08;;;;;;;;;;;;;;;-0.22;68.31;99262.53;105274;1258;113416;-65
2023/01/29 12:24:49;;;;;;;;;;;;;;;0.13;66.47;99264.21;104606;1261;101350;-65
2023/01/29 12:27:24;;;;;;;;;;;;;;;0.32;66.72;99259.46;104603;1261;108398;-65
2023/01/29 12:29:56;;;;;;;;;;;;;;;0.58;66.14;99262.26;104626;1273;99477;-65
2023/01/29 12:32:29;;;;;;;;;;;;;;;0.89;64.83;99265.40;104666;1264;99718;-65
2023/01/29 12:35:10;;;;;;;;;;;;;;;1.02;64.00;99262.39;104608;1264;113485;-65
2023/01/29 12:37:43;;;;;;;;;;;;;;;1.05;64.62;99253.02;104626;1264;99426;-66
2023/01/29 12:40:14;;;;;;;;;;;;;;;1.10;63.60;99246.86;104588;1264;108635;-66
2023/01/29 12:42:45;;;;;;;;;;;;;;;0.99;63.05;99245.88;104616;1267;99424;-66
2023/01/29 12:45:16;;;;;;;;;;;;;;;0.88;62.78;99245.57;104567;1264;99282;-66
2023/01/29 12:47:46;;;;;;;;;;;;;;;0.84;63.32;99240.69;104627;1264;113730;-67
2023/01/29 12:50:19;;;;;;;;;;;;;;;0.84;62.88;99239.66;104673;1266;99427;-66
2023/01/29 12:52:49;;;;;;;;;;;;;;;0.81;62.71;99235.16;104562;1266;108554;-66
2023/01/29 12:55:22;;;;;;;;;;;;;;;0.69;62.46;99232.03;104602;1264;99475;-66
2023/01/29 12:57:49;;;;;;;;;;;;;;;0.62;62.86;99235.54;104606;1271;99375;-66
2023/01/29 13:00:21;;;;;;;;;;;;;;;0.64;63.33;99235.69;104565;1264;99386;-66
2023/01/29 13:02:51;;;;;;;;;;;;;;;0.64;63.60;99229.75;105059;1258;99317;-66
2023/01/29 13:05:24;;;;;;;;;;;;;;;0.66;63.27;99233.08;105284;1260;107611;-66
2023/01/29 13:08:06;;;;;;;;;;;;;;;0.71;63.48;99229.09;105033;1256;99350;-65
2023/01/29 13:10:36;;;;;;;;;;;;;;;0.78;63.46;99228.67;105130;1260;99215;-64
2023/01/29 13:13:27;;;;;;;;;;;;;;;0.83;63.52;99220.37;105156;1256;112730;-67
2023/01/29 13:15:55;;;;;;;;;;;;;;;0.80;64.00;99212.84;104951;1258;100585;-64
2023/01/29 13:18:22;;;;;;;;;;;;;;;0.75;63.88;99209.73;105262;1257;107594;-65